createdAt,value
2022-08-17T00:00:43.215Z,101089.84
2022-08-17T00:03:13.672Z,101084.63
2022-08-17T00:05:46.716Z,101090.97
2022-08-17T00:08:18.044Z,101085.69
2022-08-17T00:10:47.738Z,101089.41
2022-08-17T00:13:21.266Z,101087.81
2022-08-17T00:15:49.959Z,101090.50
2022-08-17T00:19:01.048Z,101084.41
2022-08-17T00:21:10.463Z,101087.25
2022-08-17T00:23:47.677Z,101096.25
2022-08-17T00:26:43.135Z,101098.19
2022-08-17T00:29:09.861Z,101083.25
2022-08-17T00:31:48.569Z,101086.91
2022-08-17T00:34:16.849Z,101094.94
2022-08-17T00:36:45.194Z,101099.44
2022-08-17T00:39:13.471Z,101100.44
2022-08-17T00:41:42.422Z,101098.75
2022-08-17T00:44:14.147Z,101100.56
2022-08-17T00:46:45.436Z,101096.22
2022-08-17T00:49:19.357Z,101086.59
2022-08-17T00:51:54.364Z,101087.63
2022-08-17T00:54:28.674Z,101085.13
2022-08-17T00:57:00.947Z,101086.16
2022-08-17T00:59:36.657Z,101081.88
2022-08-17T01:02:06.690Z,101074.00
2022-08-17T01:04:35.121Z,101067.94
2022-08-17T01:07:06.119Z,101066.31
2022-08-17T01:09:35.159Z,101080.53
2022-08-17T01:12:06.558Z,101070.91
2022-08-17T01:14:39.830Z,101067.50
2022-08-17T01:17:09.042Z,101065.81
2022-08-17T01:19:40.605Z,101080.97
2022-08-17T01:22:23.049Z,101087.34
2022-08-17T01:24:54.629Z,101069.72
2022-08-17T01:27:22.966Z,101077.84
2022-08-17T01:29:58.676Z,101078.81
2022-08-17T01:32:28.071Z,101066.44
2022-08-17T01:34:58.117Z,101062.97
2022-08-17T01:37:34.442Z,101072.78
2022-08-17T01:40:08.678Z,101082.50
2022-08-17T01:42:44.215Z,101078.88
2022-08-17T01:45:17.729Z,101081.44
2022-08-17T01:47:46.188Z,101086.72
2022-08-17T01:50:18.234Z,101089.38
2022-08-17T01:52:51.631Z,101086.72
2022-08-17T01:55:27.485Z,101086.81
2022-08-17T01:57:56.039Z,101085.88
2022-08-17T02:00:24.755Z,101084.16
2022-08-17T02:02:52.942Z,101086.81
2022-08-17T02:05:21.423Z,101087.78
2022-08-17T02:08:00.455Z,101089.66
2022-08-17T02:10:34.066Z,101096.84
2022-08-17T02:13:03.371Z,101094.25
2022-08-17T02:15:32.114Z,101088.09
2022-08-17T02:18:00.748Z,101089.91
2022-08-17T02:20:42.205Z,101088.16
2022-08-17T02:23:14.414Z,101086.41
2022-08-17T02:25:44.944Z,101086.41
2022-08-17T02:28:13.033Z,101080.16
2022-08-17T02:30:59.370Z,101086.31
2022-08-17T02:33:42.227Z,101087.25
2022-08-17T02:36:13.917Z,101080.97
2022-08-17T02:38:43.702Z,101089.78
2022-08-17T02:41:13.062Z,101081.81
2022-08-17T02:43:41.298Z,101085.31
2022-08-17T02:46:10.111Z,101075.53
2022-08-17T02:48:38.255Z,101076.44
2022-08-17T02:51:06.972Z,101072.84
2022-08-17T02:53:35.785Z,101075.47
2022-08-17T02:56:06.202Z,101071.84
2022-08-17T02:58:36.096Z,101069.19
2022-08-17T03:01:05.821Z,101075.47
2022-08-17T03:03:34.397Z,101074.59
2022-08-17T03:06:02.832Z,101079.03
2022-08-17T03:08:31.629Z,101077.31
2022-08-17T03:10:59.875Z,101069.34
2022-08-17T03:13:30.779Z,101065.00
2022-08-17T03:15:59.102Z,101058.81
2022-08-17T03:18:28.005Z,101060.66
2022-08-17T03:20:58.490Z,101069.63
2022-08-17T03:23:29.563Z,101060.84
2022-08-17T03:25:58.954Z,101070.66
2022-08-17T03:28:29.266Z,101070.78
2022-08-17T03:30:57.463Z,101065.53
2022-08-17T03:33:25.674Z,101069.94
2022-08-17T03:35:53.934Z,101066.47
2022-08-17T03:38:24.831Z,101067.38
2022-08-17T03:40:59.396Z,101063.88
2022-08-17T03:43:32.841Z,101065.75
2022-08-17T03:46:27.800Z,101064.88
2022-08-17T03:49:21.275Z,101070.31
2022-08-17T03:52:07.128Z,101062.44
2022-08-17T03:54:53.011Z,101061.69
2022-08-17T03:57:21.195Z,101064.31
2022-08-17T03:59:51.393Z,101055.47
2022-08-17T04:02:24.253Z,101054.66
2022-08-17T04:04:54.337Z,101061.78
2022-08-17T04:07:25.589Z,101059.09
2022-08-17T04:09:54.261Z,101060.84
2022-08-17T04:12:25.115Z,101075.00
2022-08-17T04:14:55.349Z,101079.41
2022-08-17T04:17:26.853Z,101074.03
2022-08-17T04:19:56.538Z,101073.13
2022-08-17T04:22:32.681Z,101067.69
2022-08-17T04:25:05.383Z,101079.16
2022-08-17T04:27:33.728Z,101080.78
2022-08-17T04:30:03.745Z,101085.97
2022-08-17T04:33:03.989Z,101076.03
2022-08-17T04:35:23.453Z,101074.13
2022-08-17T04:37:51.802Z,101089.91
2022-08-17T04:40:40.511Z,101094.19
2022-08-17T04:43:12.590Z,101092.25
2022-08-17T04:45:51.243Z,101096.50
2022-08-17T04:48:35.255Z,101091.03
2022-08-17T04:51:09.854Z,101086.41
2022-08-17T04:53:40.211Z,101094.19
2022-08-17T04:56:15.940Z,101089.50
2022-08-17T04:58:47.829Z,101094.66
2022-08-17T05:01:18.532Z,101092.78
2022-08-17T05:03:53.375Z,101106.84
2022-08-17T05:06:21.592Z,101096.09
2022-08-17T05:08:49.918Z,101094.13
2022-08-17T05:11:18.464Z,101103.75
2022-08-17T05:13:50.068Z,101101.78
2022-08-17T05:16:21.542Z,101103.41
2022-08-17T05:18:49.903Z,101109.47
2022-08-17T05:21:19.246Z,101099.59
2022-08-17T05:23:53.930Z,101108.25
2022-08-17T05:26:26.679Z,101107.19
2022-08-17T05:29:00.491Z,101110.47
2022-08-17T05:31:32.676Z,101111.06
2022-08-17T05:34:00.844Z,101109.00
2022-08-17T05:36:43.247Z,101108.78
2022-08-17T05:39:15.738Z,101115.72
2022-08-17T05:41:48.696Z,101104.78
2022-08-17T05:44:17.852Z,101108.09
2022-08-17T05:46:51.137Z,101109.66
2022-08-17T05:49:24.578Z,101109.41
2022-08-17T05:52:20.071Z,101111.88
2022-08-17T05:55:06.260Z,101116.25
2022-08-17T05:58:08.804Z,101123.13
2022-08-17T06:00:48.118Z,101122.94
2022-08-17T06:03:45.574Z,101131.69
2022-08-17T06:06:39.841Z,101128.03
2022-08-17T06:09:33.585Z,101125.91
2022-08-17T06:12:20.086Z,101116.81
2022-08-17T06:15:07.609Z,101125.59
2022-08-17T06:17:36.777Z,101122.59
2022-08-17T06:20:11.950Z,101132.13
2022-08-17T06:22:45.677Z,101126.66
2022-08-17T06:25:19.469Z,101121.13
2022-08-17T06:27:53.483Z,101131.63
2022-08-17T06:30:26.240Z,101146.50
2022-08-17T06:32:59.531Z,101135.63
2022-08-17T06:35:39.980Z,101131.94
2022-08-17T06:38:34.968Z,101136.44
2022-08-17T06:41:16.370Z,101128.56
2022-08-17T06:44:04.689Z,101132.22
2022-08-17T06:46:38.545Z,101136.75
2022-08-17T06:49:17.681Z,101126.13
2022-08-17T06:51:53.694Z,101130.66
2022-08-17T06:54:35.038Z,101128.16
2022-08-17T06:57:14.816Z,101135.34
2022-08-17T06:59:55.755Z,101121.19
2022-08-17T07:02:52.487Z,101122.94
2022-08-17T07:05:26.246Z,101127.19
2022-08-17T07:08:04.409Z,101118.25
2022-08-17T07:10:44.696Z,101116.66
2022-08-17T07:13:32.599Z,101125.91
2022-08-17T07:16:16.737Z,101132.41
2022-08-17T07:18:45.387Z,101123.69
2022-08-17T07:21:31.540Z,101129.16
2022-08-17T07:24:29.390Z,101131.03
2022-08-17T07:27:16.216Z,101145.31
2022-08-17T07:29:53.658Z,101160.38
2022-08-17T07:32:27.718Z,101158.59
2022-08-17T07:35:11.848Z,101149.72
2022-08-17T07:37:42.900Z,101144.28
2022-08-17T07:40:38.094Z,101129.03
2022-08-17T07:43:23.082Z,101126.25
2022-08-17T07:46:36.182Z,101131.19
2022-08-17T07:49:35.232Z,101136.00
2022-08-17T07:52:24.262Z,101134.75
2022-08-17T07:54:57.471Z,101145.19
2022-08-17T07:57:36.659Z,101148.56
2022-08-17T08:00:32.180Z,101150.00
2022-08-17T08:03:26.221Z,101153.41
2022-08-17T08:06:00.249Z,101146.66
2022-08-17T08:08:33.538Z,101147.81
2022-08-17T08:11:09.456Z,101144.59
2022-08-17T08:13:45.120Z,101141.28
2022-08-17T08:16:27.570Z,101142.44
2022-08-17T08:18:58.917Z,101141.78
2022-08-17T08:21:38.100Z,101143.84
2022-08-17T08:24:30.176Z,101150.13
2022-08-17T08:27:10.269Z,101158.16
2022-08-17T08:29:49.132Z,101167.38
2022-08-17T08:32:23.291Z,101179.75
2022-08-17T08:35:04.051Z,101190.41
2022-08-17T08:37:45.048Z,101193.88
2022-08-17T08:40:34.861Z,101200.50
2022-08-17T08:43:16.201Z,101199.44
2022-08-17T08:45:56.657Z,101195.22
2022-08-17T08:48:56.376Z,101193.53
2022-08-17T08:51:40.461Z,101192.28
2022-08-17T08:54:27.267Z,101192.91
2022-08-17T09:00:08.713Z,101199.41
2022-08-17T09:03:09.013Z,101200.97
2022-08-17T09:06:04.052Z,101202.88
2022-08-17T09:08:54.340Z,101191.66
2022-08-17T09:11:31.990Z,101198.16
2022-08-17T09:14:21.568Z,101193.41
2022-08-17T09:17:05.020Z,101193.78
2022-08-17T09:19:40.109Z,101188.09
2022-08-17T09:22:23.659Z,101184.63
2022-08-17T09:24:58.355Z,101186.00
2022-08-17T09:27:33.296Z,101193.78
2022-08-17T09:30:07.831Z,101190.41
2022-08-17T09:32:44.004Z,101195.09
2022-08-17T09:35:20.023Z,101195.88
2022-08-17T09:37:58.546Z,101193.09
2022-08-17T09:40:34.730Z,101194.84
2022-08-17T09:43:11.318Z,101186.69
2022-08-17T09:45:49.493Z,101185.47
2022-08-17T09:48:22.807Z,101184.41
2022-08-17T09:51:08.215Z,101190.50
2022-08-17T09:53:38.698Z,101194.53
2022-08-17T09:56:45.984Z,101197.81
2022-08-17T09:59:41.871Z,101196.25
2022-08-17T10:02:56.528Z,101188.91
2022-08-17T10:05:33.225Z,101202.25
2022-08-17T10:08:12.473Z,101196.16
2022-08-17T10:10:56.198Z,101187.09
2022-08-17T10:13:41.141Z,101185.22
2022-08-17T10:16:32.110Z,101176.41
2022-08-17T10:19:17.303Z,101174.47
2022-08-17T10:22:14.590Z,101175.47
2022-08-17T10:25:22.195Z,101175.53
2022-08-17T10:27:58.459Z,101178.34
2022-08-17T10:30:31.094Z,101183.03
2022-08-17T10:33:02.247Z,101185.31
2022-08-17T10:35:43.479Z,101179.75
2022-08-17T10:38:41.110Z,101175.91
2022-08-17T10:41:29.033Z,101177.25
2022-08-17T10:44:38.095Z,101173.00
2022-08-17T10:47:10.494Z,101168.19
2022-08-17T10:49:47.891Z,101163.50
2022-08-17T10:52:51.670Z,101170.09
2022-08-17T10:55:21.361Z,101178.97
2022-08-17T10:57:54.815Z,101178.19
2022-08-17T11:01:12.853Z,101165.31
2022-08-17T11:03:54.097Z,101165.03
2022-08-17T11:06:34.614Z,101163.56
2022-08-17T11:09:29.309Z,101155.69
2022-08-17T11:12:25.593Z,101155.59
2022-08-17T11:15:14.441Z,101162.22
2022-08-17T11:18:19.160Z,101159.72
2022-08-17T11:21:14.629Z,101165.47
2022-08-17T11:24:23.139Z,101165.06
2022-08-17T11:27:27.398Z,101170.09
2022-08-17T11:30:02.757Z,101172.25
2022-08-17T11:32:47.486Z,101167.31
2022-08-17T11:35:34.711Z,101165.28
2022-08-17T11:38:17.726Z,101165.56
2022-08-17T11:41:07.196Z,101163.69
2022-08-17T11:44:11.531Z,101149.69
2022-08-17T11:47:19.088Z,101162.28
2022-08-17T11:50:27.922Z,101154.22
2022-08-17T11:52:56.727Z,101162.75
2022-08-17T11:56:04.104Z,101156.78
2022-08-17T11:58:40.561Z,101159.91
2022-08-17T12:01:13.586Z,101155.28
2022-08-17T12:03:56.073Z,101165.44
2022-08-17T12:06:46.862Z,101164.81
2022-08-17T12:09:20.652Z,101159.09
2022-08-17T12:12:12.410Z,101162.56
2022-08-17T12:15:09.432Z,101163.06
2022-08-17T12:17:40.815Z,101169.75
2022-08-17T12:20:29.410Z,101177.75
2022-08-17T12:23:08.048Z,101163.06
2022-08-17T12:25:42.067Z,101164.34
2022-08-17T12:28:23.511Z,101164.50
2022-08-17T12:30:53.277Z,101161.97
2022-08-17T12:33:28.639Z,101159.63
2022-08-17T12:36:04.440Z,101160.22
2022-08-17T12:38:35.039Z,101154.81
2022-08-17T12:41:21.439Z,101154.41
2022-08-17T12:44:01.582Z,101151.59
2022-08-17T12:46:36.013Z,101144.47
2022-08-17T12:49:23.600Z,101143.97
2022-08-17T12:52:02.236Z,101151.63
2022-08-17T12:54:42.592Z,101139.22
2022-08-17T12:57:18.101Z,101143.53
2022-08-17T12:59:52.693Z,101138.66
2022-08-17T13:02:30.934Z,101142.53
2022-08-17T13:05:02.324Z,101140.03
2022-08-17T13:07:37.160Z,101141.66
2022-08-17T13:10:06.453Z,101142.72
2022-08-17T13:12:36.577Z,101140.69
2022-08-17T13:15:06.211Z,101133.47
2022-08-17T13:17:37.546Z,101147.50
2022-08-17T13:20:15.726Z,101140.25
2022-08-17T13:22:54.019Z,101141.47
2022-08-17T13:25:22.839Z,101144.94
2022-08-17T13:27:53.662Z,101152.50
2022-08-17T13:30:28.096Z,101150.94
2022-08-17T13:32:58.317Z,101153.72
2022-08-17T13:35:49.900Z,101150.88
2022-08-17T13:38:41.094Z,101147.59
2022-08-17T13:41:09.467Z,101138.59
2022-08-17T13:43:48.550Z,101134.28
2022-08-17T13:46:23.848Z,101139.44
2022-08-17T13:49:01.874Z,101137.84
2022-08-17T13:51:34.743Z,101132.59
2022-08-17T13:54:22.150Z,101135.69
2022-08-17T13:56:58.712Z,101124.22
2022-08-17T13:59:55.309Z,101122.56
2022-08-17T14:02:28.378Z,101128.56
2022-08-17T14:05:02.030Z,101122.41
2022-08-17T14:07:37.246Z,101118.22
2022-08-17T14:10:13.621Z,101112.19
2022-08-17T14:12:44.381Z,101112.31
2022-08-17T14:15:14.907Z,101108.44
2022-08-17T14:17:43.111Z,101105.41
2022-08-17T14:20:14.083Z,101101.84
2022-08-17T14:22:47.209Z,101103.88
2022-08-17T14:25:20.853Z,101099.91
2022-08-17T14:27:53.172Z,101100.28
2022-08-17T14:30:25.438Z,101107.56
2022-08-17T14:32:57.926Z,101102.97
2022-08-17T14:35:28.090Z,101099.53
2022-08-17T14:37:57.551Z,101092.75
2022-08-17T14:40:28.040Z,101085.94
2022-08-17T14:42:58.172Z,101091.81
2022-08-17T14:45:32.281Z,101091.25
2022-08-17T14:48:05.622Z,101078.28
2022-08-17T14:50:35.700Z,101079.78
2022-08-17T14:53:05.176Z,101086.53
2022-08-17T14:55:35.518Z,101093.41
2022-08-17T14:58:05.073Z,101084.28
2022-08-17T15:00:33.381Z,101090.16
2022-08-17T15:03:02.763Z,101082.53
2022-08-17T15:05:34.078Z,101090.72
2022-08-17T15:08:04.630Z,101101.84
2022-08-17T15:10:34.978Z,101095.31
2022-08-17T15:13:03.488Z,101100.41
2022-08-17T15:15:32.091Z,101091.50
2022-08-17T15:18:00.997Z,101111.84
2022-08-17T15:20:31.175Z,101118.00
2022-08-17T15:22:59.679Z,101131.19
2022-08-17T15:25:30.589Z,101133.84
2022-08-17T15:28:01.232Z,101132.22
2022-08-17T15:30:30.625Z,101133.31
2022-08-17T15:33:00.648Z,101125.72
2022-08-17T15:35:32.069Z,101124.81
2022-08-17T15:38:07.964Z,101136.72
2022-08-17T15:40:43.051Z,101138.47
2022-08-17T15:43:15.852Z,101172.28
2022-08-17T15:45:45.079Z,101184.28
2022-08-17T15:48:40.594Z,101187.09
2022-08-17T15:51:11.409Z,101158.81
2022-08-17T15:53:41.890Z,101166.41
2022-08-17T15:56:11.300Z,101160.97
2022-08-17T15:58:42.195Z,101134.41
2022-08-17T16:01:14.792Z,101118.34
2022-08-17T16:04:06.624Z,101120.50
2022-08-17T16:06:36.486Z,101124.97
2022-08-17T16:09:04.811Z,101133.72
2022-08-17T16:11:32.942Z,101136.94
2022-08-17T16:14:02.515Z,101144.25
2022-08-17T16:16:31.231Z,101151.13
2022-08-17T16:18:59.531Z,101139.59
2022-08-17T16:21:31.160Z,101131.81
2022-08-17T16:24:12.709Z,101116.13
2022-08-17T16:26:43.785Z,101132.31
2022-08-17T16:29:13.417Z,101137.97
2022-08-17T16:31:42.425Z,101135.72
2022-08-17T16:34:17.045Z,101123.91
2022-08-17T16:36:53.598Z,101128.06
2022-08-17T16:39:26.065Z,101124.91
2022-08-17T16:41:54.805Z,101124.09
2022-08-17T16:44:25.648Z,101121.34
2022-08-17T16:46:53.828Z,101131.91
2022-08-17T16:49:24.492Z,101132.66
2022-08-17T16:52:10.014Z,101136.94
2022-08-17T16:54:41.715Z,101141.91
2022-08-17T16:57:09.983Z,101129.19
2022-08-17T16:59:45.020Z,101131.56
2022-08-17T17:02:18.113Z,101139.38
2022-08-17T17:04:54.898Z,101132.97
2022-08-17T17:08:03.908Z,101133.72
2022-08-17T17:10:39.243Z,101125.75
2022-08-17T17:13:14.531Z,101123.38
2022-08-17T17:15:55.729Z,101122.56
2022-08-17T17:18:37.706Z,101125.06
2022-08-17T17:21:10.650Z,101125.75
2022-08-17T17:23:52.969Z,101122.31
2022-08-17T17:26:38.890Z,101116.09
2022-08-17T17:29:28.766Z,101110.94
2022-08-17T17:32:22.647Z,101106.41
2022-08-17T17:35:02.885Z,101106.31
2022-08-17T17:37:36.675Z,101106.94
2022-08-17T17:42:42.698Z,101102.34
2022-08-17T17:45:19.989Z,101106.00
2022-08-17T17:47:50.742Z,101107.81
2022-08-17T17:50:23.472Z,101106.94
2022-08-17T17:53:04.029Z,101105.06
2022-08-17T17:55:48.413Z,101100.53
2022-08-17T17:58:35.425Z,101106.69
2022-08-17T18:01:27.091Z,101104.88
2022-08-17T18:04:20.493Z,101101.50
2022-08-17T18:07:12.823Z,101107.81
2022-08-17T18:10:29.611Z,101109.59
2022-08-17T18:13:12.892Z,101098.94
2022-08-17T18:15:51.352Z,101101.59
2022-08-17T18:18:38.511Z,101107.06
2022-08-17T18:21:16.730Z,101105.38
2022-08-17T18:23:50.821Z,101111.66
2022-08-17T18:26:48.384Z,101117.06
2022-08-17T18:29:35.853Z,101105.56
2022-08-17T18:32:40.745Z,101115.34
2022-08-17T18:35:35.025Z,101113.84
2022-08-17T18:38:24.764Z,101112.94
2022-08-17T18:41:02.546Z,101119.22
2022-08-17T18:43:44.446Z,101113.94
2022-08-17T18:46:29.709Z,101112.31
2022-08-17T18:49:01.333Z,101116.91
2022-08-17T18:51:40.511Z,101105.41
2022-08-17T18:54:24.298Z,101106.28
2022-08-17T18:56:56.675Z,101114.28
2022-08-17T18:59:30.942Z,101117.94
2022-08-17T19:02:38.762Z,101118.78
2022-08-17T19:05:13.747Z,101119.59
2022-08-17T19:07:45.524Z,101112.31
2022-08-17T19:10:23.012Z,101108.69
2022-08-17T19:13:00.722Z,101122.78
2022-08-17T19:15:36.687Z,101122.75
2022-08-17T19:18:15.675Z,101129.00
2022-08-17T19:20:59.595Z,101134.41
2022-08-17T19:23:35.132Z,101121.03
2022-08-17T19:26:50.326Z,101122.75
2022-08-17T19:29:09.372Z,101122.00
2022-08-17T19:31:38.022Z,101129.06
2022-08-17T19:34:06.449Z,101129.00
2022-08-17T19:36:43.383Z,101126.22
2022-08-17T19:39:19.347Z,101137.75
2022-08-17T19:41:58.482Z,101137.91
2022-08-17T19:44:50.373Z,101136.44
2022-08-17T19:47:51.248Z,101141.13
2022-08-17T19:50:22.473Z,101142.06
2022-08-17T19:52:57.978Z,101139.41
2022-08-17T19:55:33.202Z,101145.50
2022-08-17T19:58:12.390Z,101145.44
2022-08-17T20:00:52.736Z,101153.38
2022-08-17T20:03:27.639Z,101155.91
2022-08-17T20:06:15.270Z,101157.72
2022-08-17T20:08:57.163Z,101164.06
2022-08-17T20:11:33.997Z,101168.59
2022-08-17T20:14:09.383Z,101166.09
2022-08-17T20:16:37.652Z,101184.00
2022-08-17T20:19:12.387Z,101196.38
2022-08-17T20:21:47.522Z,101195.34
2022-08-17T20:24:23.789Z,101200.56
2022-08-17T20:26:58.737Z,101201.63
2022-08-17T20:29:37.445Z,101201.63
2022-08-17T20:32:28.903Z,101200.69
2022-08-17T20:35:22.831Z,101203.22
2022-08-17T20:37:58.732Z,101211.22
2022-08-17T20:40:38.300Z,101213.78
2022-08-17T20:44:02.416Z,101226.13
2022-08-17T20:46:52.281Z,101225.09
2022-08-17T20:49:27.944Z,101225.03
2022-08-17T20:52:03.005Z,101220.44
2022-08-17T20:54:51.207Z,101219.50
2022-08-17T20:57:49.769Z,101206.94
2022-08-17T21:01:10.595Z,101220.19
2022-08-17T21:03:52.265Z,101211.28
2022-08-17T21:06:26.126Z,101218.25
2022-08-17T21:09:00.676Z,101214.66
2022-08-17T21:12:04.469Z,101212.03
2022-08-17T21:14:58.618Z,101202.31
2022-08-17T21:17:46.479Z,101205.97
2022-08-17T21:20:32.914Z,101219.34
2022-08-17T21:23:40.566Z,101225.84
2022-08-17T21:26:21.422Z,101236.63
2022-08-17T21:29:31.020Z,101228.09
2022-08-17T21:32:25.190Z,101231.16
2022-08-17T21:35:31.559Z,101239.47
2022-08-17T21:38:15.076Z,101248.44
2022-08-17T21:40:50.147Z,101251.19
2022-08-17T21:43:29.295Z,101251.25
2022-08-17T21:46:02.834Z,101245.06
2022-08-17T21:48:33.532Z,101237.09
2022-08-17T21:51:12.213Z,101228.13
2022-08-17T21:53:46.332Z,101230.69
2022-08-17T21:56:24.329Z,101219.09
2022-08-17T21:58:58.674Z,101230.59
2022-08-17T22:01:30.439Z,101219.13
2022-08-17T22:04:06.600Z,101234.28
2022-08-17T22:06:40.584Z,101234.41
2022-08-17T22:09:20.244Z,101243.41
2022-08-17T22:12:07.050Z,101243.47
2022-08-17T22:14:52.576Z,101245.34
2022-08-17T22:17:26.155Z,101229.47
2022-08-17T22:19:59.038Z,101219.75
2022-08-17T22:22:55.004Z,101219.78
2022-08-17T22:25:25.630Z,101218.94
2022-08-17T22:27:58.181Z,101226.94
2022-08-17T22:30:37.541Z,101230.56
2022-08-17T22:33:36.889Z,101222.72
2022-08-17T22:36:22.145Z,101228.97
2022-08-17T22:38:53.539Z,101214.78
2022-08-17T22:41:48.239Z,101213.00
2022-08-17T22:44:24.984Z,101213.94
2022-08-17T22:47:11.152Z,101221.03
2022-08-17T22:49:53.285Z,101214.84
2022-08-17T22:52:35.611Z,101220.03
2022-08-17T22:55:34.801Z,101226.25
2022-08-17T22:58:27.830Z,101226.34
2022-08-17T23:00:56.341Z,101224.59
2022-08-17T23:03:28.546Z,101229.91
2022-08-17T23:06:07.664Z,101229.91
2022-08-17T23:08:43.844Z,101226.41
2022-08-17T23:11:14.282Z,101236.28
2022-08-17T23:13:42.443Z,101232.72
2022-08-17T23:16:10.940Z,101227.47
2022-08-17T23:18:39.134Z,101232.72
2022-08-17T23:21:07.744Z,101234.53
2022-08-17T23:23:37.960Z,101229.16
2022-08-17T23:26:10.418Z,101232.69
2022-08-17T23:28:41.025Z,101228.22
2022-08-17T23:31:09.403Z,101229.91
2022-08-17T23:33:39.377Z,101232.69
2022-08-17T23:36:09.783Z,101233.50
2022-08-17T23:38:38.171Z,101229.00
2022-08-17T23:41:12.745Z,101228.00
2022-08-17T23:43:44.743Z,101221.63
2022-08-17T23:46:13.114Z,101233.97
2022-08-17T23:48:42.101Z,101230.41
2022-08-17T23:51:16.115Z,101235.72
2022-08-17T23:53:48.132Z,101235.72
2022-08-17T23:56:22.683Z,101226.88
2022-08-17T23:58:52.402Z,101231.31
